Ironwood, MI (49938)

4:09 AM CST on February 06, 2016 (GMT -0600)
North of US 2 | | Change Station
CLOSE
Current Station
Personal Weather Station
Location: Ironwood, MI
Elevation: 1490 ft
Nearby Weather Stations

Elev 1490 ft 46.47 °N, 90.15 °W | Updated 19 seconds ago

Overcast
Overcast
21.2 °F
Feels Like 15 °F
N
4.9
Wind Variable Wind from SW
Gusts 7.4 mph

Today
High -- | Low -- °F
--% Chance of Precip.
Yesterday
High -- | Low -- °F
Precip. -- in
Pressure 30.03 in
Visibility 8.0 miles
Clouds Overcast 3100 ft
Windchill 15 °F
Dew Point 17 °F
Humidity 85%
Rainfall 0.00 in
Snow Depth Not available.
7:18 AM 5:11 PM
Waning Crescent, 6% visible
METAR KIWD 060955Z AUTO 24009KT 8SM OVC031 M06/M07 A3003 RMK AO1
Pressure 30.03 in
Visibility 8.0 miles
Clouds Overcast 3100 ft
Windchill 15 °F
Dew Point 17 °F
Humidity 85%
Rainfall 0.00 in
Snow Depth Not available.
7:18 AM 5:11 PM
Waning Crescent, 6% visible
METAR KIWD 060955Z AUTO 24009KT 8SM OVC031 M06/M07 A3003 RMK AO1

10-Day Weather Forecast

Almanac

Astronomy

Feb. 06, 2016 Rise Set
Actual Time
Civil Twilight
Nautical Twilight
Astronomical Twilight
Moon
Length of Visible Light
Length of Day
Tomorrow will be .
, % of the Moon is Illuminated

Today's Extremes

State Highs State Lows

Community

WunderPhotos

Upload Photos

1,890,933 photos uploaded!

WunderBlog® & News

Nearby

Air Quality

  Air Quality AQ Index Pollutant
Not available.

Snow Depth

Station Depth Elevation

Earthquake Activity

City Distance Mag. Time & Date
Minimum magnitude displayed is 2.5.

Coastal Water Temperatures

Place Temperature

Stations

Nearby Weather Stations

Station Location Temp. Windchill Dew Point Humidity Wind Precip. Elev Updated Type
                   

Watches & Warnings

There are currently no watches in effect.